createdAt,value
2019-02-07T00:02:18.453Z,95475.50
2019-02-07T00:04:49.505Z,95475.48
2019-02-07T00:07:19.666Z,95474.59
2019-02-07T00:09:49.743Z,95469.05
2019-02-07T00:12:27.307Z,95462.45
2019-02-07T00:15:04.539Z,95468.31
2019-02-07T00:17:34.932Z,95460.94
2019-02-07T00:20:06.506Z,95456.33
2019-02-07T00:22:39.187Z,95460.59
2019-02-07T00:25:09.108Z,95451.63
2019-02-07T00:27:39.207Z,95444.02
2019-02-07T00:30:11.968Z,95446.73
2019-02-07T00:32:41.896Z,95451.23
2019-02-07T00:35:12.357Z,95448.33
2019-02-07T00:37:42.543Z,95458.05
2019-02-07T00:40:14.144Z,95454.58
2019-02-07T00:42:44.471Z,95452.03
2019-02-07T00:45:15.094Z,95452.59
2019-02-07T00:47:45.093Z,95455.98
2019-02-07T00:50:15.512Z,95452.38
2019-02-07T00:52:45.603Z,95459.73
2019-02-07T00:55:15.657Z,95451.64
2019-02-07T00:57:47.424Z,95451.68
2019-02-07T01:00:20.362Z,95444.63
2019-02-07T01:02:50.654Z,95443.94
2019-02-07T01:05:21.417Z,95448.36
2019-02-07T01:07:51.489Z,95444.05
2019-02-07T01:10:26.973Z,95451.79
2019-02-07T01:12:57.150Z,95450.03
2019-02-07T01:15:28.075Z,95450.03
2019-02-07T01:17:58.143Z,95444.66
2019-02-07T01:20:28.130Z,95437.83
2019-02-07T01:22:58.457Z,95435.70
2019-02-07T01:25:28.642Z,95427.21
2019-02-07T01:27:58.617Z,95423.49
2019-02-07T01:30:29.096Z,95423.10
2019-02-07T01:32:59.140Z,95419.03
2019-02-07T01:35:29.168Z,95416.37
2019-02-07T01:37:59.068Z,95407.50
2019-02-07T01:40:29.124Z,95399.67
2019-02-07T01:42:59.058Z,95401.59
2019-02-07T01:45:29.123Z,95388.98
2019-02-07T01:47:59.104Z,95388.67
2019-02-07T01:50:29.089Z,95374.73
2019-02-07T01:52:59.024Z,95380.78
2019-02-07T01:55:28.972Z,95384.54
2019-02-07T01:57:59.008Z,95370.95
2019-02-07T02:00:29.003Z,95377.59
2019-02-07T02:02:58.963Z,95376.02
2019-02-07T02:05:29.820Z,95370.34
2019-02-07T02:07:59.900Z,95368.19
2019-02-07T02:10:30.122Z,95361.20
2019-02-07T02:13:00.178Z,95356.73
2019-02-07T02:15:30.175Z,95353.20
2019-02-07T02:18:00.273Z,95354.00
2019-02-07T02:20:30.253Z,95354.30
2019-02-07T02:23:00.317Z,95351.02
2019-02-07T02:25:30.223Z,95347.16
2019-02-07T02:28:00.210Z,95344.09
2019-02-07T02:30:32.387Z,95342.77
2019-02-07T02:33:02.977Z,95341.76
2019-02-07T02:35:32.901Z,95341.03
2019-02-07T02:38:03.022Z,95336.02
2019-02-07T02:40:33.005Z,95332.50
2019-02-07T02:43:02.995Z,95325.08
2019-02-07T02:45:37.739Z,95323.06
2019-02-07T02:48:05.076Z,95317.00
2019-02-07T02:50:34.909Z,95313.17
2019-02-07T02:53:04.929Z,95312.75
2019-02-07T02:55:39.691Z,95307.78
2019-02-07T02:58:09.941Z,95309.41
2019-02-07T03:00:58.121Z,95311.13
2019-02-07T03:03:46.637Z,95314.59
2019-02-07T03:06:30.600Z,95307.31
2019-02-07T03:09:12.139Z,95307.01
2019-02-07T03:12:01.145Z,95305.41
2019-02-07T03:15:05.466Z,95300.39
2019-02-07T03:17:44.914Z,95299.70
2019-02-07T03:20:42.866Z,95293.22
2019-02-07T03:23:30.419Z,95284.61
2019-02-07T03:26:22.547Z,95280.71
2019-02-07T03:29:05.690Z,95266.71
2019-02-07T03:31:56.123Z,95268.70
2019-02-07T03:34:44.997Z,95263.77
2019-02-07T03:37:33.845Z,95252.09
2019-02-07T03:40:24.080Z,95251.45
2019-02-07T03:43:01.222Z,95250.73
2019-02-07T03:46:02.106Z,95238.84
2019-02-07T03:48:56.093Z,95244.55
2019-02-07T03:51:31.514Z,95243.29
2019-02-07T03:54:23.996Z,95237.47
2019-02-07T03:57:16.178Z,95231.45
2019-02-07T04:00:05.938Z,95233.45
2019-02-07T04:03:04.784Z,95234.46
2019-02-07T04:05:52.812Z,95239.44
2019-02-07T04:08:45.008Z,95241.73
2019-02-07T04:11:33.948Z,95241.36
2019-02-07T04:14:22.381Z,95241.25
2019-02-07T04:17:03.182Z,95234.50
2019-02-07T04:19:51.995Z,95227.23
2019-02-07T04:22:39.959Z,95226.36
2019-02-07T04:25:41.494Z,95226.73
2019-02-07T04:28:26.515Z,95224.38
2019-02-07T04:31:15.453Z,95217.09
2019-02-07T04:34:22.611Z,95213.03
2019-02-07T04:37:23.988Z,95212.55
2019-02-07T04:40:12.291Z,95210.48
2019-02-07T04:43:04.587Z,95206.04
2019-02-07T04:45:52.494Z,95198.66
2019-02-07T04:48:41.491Z,95195.84
2019-02-07T04:51:42.609Z,95190.48
2019-02-07T04:54:34.686Z,95189.83
2019-02-07T04:57:22.668Z,95184.64
2019-02-07T05:00:15.294Z,95182.14
2019-02-07T05:03:03.065Z,95188.26
2019-02-07T05:05:52.104Z,95184.98
2019-02-07T05:08:33.406Z,95188.30
2019-02-07T05:11:30.718Z,95194.38
2019-02-07T05:14:28.681Z,95187.84
2019-02-07T05:17:07.002Z,95177.43
2019-02-07T05:20:14.332Z,95177.79
2019-02-07T05:23:01.998Z,95178.44
2019-02-07T05:25:56.655Z,95175.14
2019-02-07T05:28:57.877Z,95183.95
2019-02-07T05:31:45.826Z,95172.59
2019-02-07T05:34:35.378Z,95171.04
2019-02-07T05:37:30.816Z,95177.30
2019-02-07T05:40:07.870Z,95178.64
2019-02-07T05:42:48.005Z,95179.94
2019-02-07T05:45:26.338Z,95176.44
2019-02-07T05:48:06.640Z,95186.08
2019-02-07T05:51:04.641Z,95177.34
2019-02-07T05:54:02.951Z,95179.56
2019-02-07T05:57:01.101Z,95188.31
2019-02-07T05:59:58.423Z,95184.03
2019-02-07T06:02:56.214Z,95172.41
2019-02-07T06:05:43.938Z,95174.30
2019-02-07T06:08:32.851Z,95185.80
2019-02-07T06:11:30.442Z,95184.42
2019-02-07T06:14:19.344Z,95174.71
2019-02-07T06:17:07.304Z,95180.06
2019-02-07T06:19:45.716Z,95170.33
2019-02-07T06:22:53.326Z,95180.55
2019-02-07T06:25:40.696Z,95174.78
2019-02-07T06:28:41.546Z,95172.95
2019-02-07T06:31:30.628Z,95181.86
2019-02-07T06:34:28.981Z,95171.80
2019-02-07T06:37:14.714Z,95177.56
2019-02-07T06:40:02.613Z,95180.06
2019-02-07T06:42:43.620Z,95178.58
2019-02-07T06:45:28.778Z,95178.48
2019-02-07T06:48:16.841Z,95180.66
2019-02-07T06:51:05.613Z,95182.07
2019-02-07T06:54:00.598Z,95177.72
2019-02-07T06:56:49.541Z,95178.11
2019-02-07T06:59:41.342Z,95179.27
2019-02-07T07:02:29.909Z,95184.25
2019-02-07T07:05:19.184Z,95185.70
2019-02-07T07:08:11.220Z,95186.25
2019-02-07T07:11:00.072Z,95193.41
2019-02-07T07:13:42.634Z,95191.81
2019-02-07T07:16:27.997Z,95194.06
2019-02-07T07:19:27.533Z,95200.98
2019-02-07T07:22:15.451Z,95195.97
2019-02-07T07:25:16.733Z,95201.77
2019-02-07T07:28:11.361Z,95199.53
2019-02-07T07:30:53.380Z,95195.39
2019-02-07T07:33:51.487Z,95195.96
2019-02-07T07:36:37.186Z,95194.79
2019-02-07T07:39:29.969Z,95186.67
2019-02-07T07:42:25.119Z,95186.67
2019-02-07T07:45:14.132Z,95178.91
2019-02-07T07:48:02.016Z,95182.70
2019-02-07T07:50:56.732Z,95172.54
2019-02-07T07:53:44.442Z,95175.36
2019-02-07T07:56:24.954Z,95177.00
2019-02-07T07:59:12.537Z,95174.00
2019-02-07T08:01:55.240Z,95181.11
2019-02-07T08:04:53.504Z,95177.95
2019-02-07T08:07:42.546Z,95174.98
2019-02-07T08:10:32.765Z,95176.23
2019-02-07T08:13:24.818Z,95177.58
2019-02-07T08:16:13.251Z,95174.61
2019-02-07T08:19:02.273Z,95170.83
2019-02-07T08:21:41.697Z,95167.45
2019-02-07T08:24:49.029Z,95166.71
2019-02-07T08:27:46.692Z,95169.43
2019-02-07T08:30:36.396Z,95165.22
2019-02-07T08:33:41.061Z,95174.77
2019-02-07T08:36:27.393Z,95168.98
2019-02-07T08:39:16.844Z,95166.41
2019-02-07T08:42:14.889Z,95162.95
2019-02-07T08:45:19.196Z,95163.83
2019-02-07T08:48:10.441Z,95166.56
2019-02-07T08:50:58.955Z,95170.94
2019-02-07T08:53:39.960Z,95157.58
2019-02-07T08:56:37.686Z,95158.25
2019-02-07T08:59:26.584Z,95160.06
2019-02-07T09:02:14.342Z,95152.80
2019-02-07T09:05:01.036Z,95142.33
2019-02-07T09:08:06.520Z,95145.33
2019-02-07T09:11:00.153Z,95142.48
2019-02-07T09:13:42.881Z,95144.23
2019-02-07T09:16:25.280Z,95130.42
2019-02-07T09:19:07.814Z,95128.92
2019-02-07T09:21:58.669Z,95125.83
2019-02-07T09:24:45.715Z,95125.16
2019-02-07T09:27:40.388Z,95131.83
2019-02-07T09:30:31.143Z,95135.33
2019-02-07T09:33:14.110Z,95132.55
2019-02-07T09:36:04.825Z,95137.53
2019-02-07T09:38:44.813Z,95134.22
2019-02-07T09:41:32.628Z,95124.09
2019-02-07T09:44:24.734Z,95122.50
2019-02-07T09:47:13.791Z,95120.10
2019-02-07T09:50:02.702Z,95109.25
2019-02-07T09:52:56.424Z,95114.34
2019-02-07T09:55:54.492Z,95112.84
2019-02-07T09:58:49.558Z,95109.48
2019-02-07T10:01:34.369Z,95111.11
2019-02-07T10:04:26.633Z,95115.41
2019-02-07T10:07:08.609Z,95118.22
2019-02-07T10:10:01.596Z,95121.47
2019-02-07T10:12:53.408Z,95120.77
2019-02-07T10:15:51.490Z,95115.77
2019-02-07T10:18:43.743Z,95120.77
2019-02-07T10:21:27.378Z,95123.34
2019-02-07T10:24:15.240Z,95115.77
2019-02-07T10:27:05.472Z,95115.48
2019-02-07T10:30:12.409Z,95104.22
2019-02-07T10:32:55.058Z,95102.95
2019-02-07T10:35:42.217Z,95100.17
2019-02-07T10:38:37.219Z,95101.91
2019-02-07T10:41:17.247Z,95096.45
2019-02-07T10:43:57.745Z,95083.72
2019-02-07T10:46:40.951Z,95077.76
2019-02-07T10:49:25.162Z,95080.55
2019-02-07T10:52:20.326Z,95075.86
2019-02-07T10:54:58.674Z,95072.88
2019-02-07T10:57:50.895Z,95076.13
2019-02-07T11:00:39.013Z,95072.16
2019-02-07T11:03:27.299Z,95069.82
2019-02-07T11:06:19.605Z,95059.77
2019-02-07T11:09:07.163Z,95058.41
2019-02-07T11:11:54.185Z,95054.90
2019-02-07T11:14:46.082Z,95052.13
2019-02-07T11:17:33.810Z,95052.05
2019-02-07T11:20:33.013Z,95049.11
2019-02-07T11:23:25.993Z,95037.73
2019-02-07T11:26:15.034Z,95042.08
2019-02-07T11:28:59.107Z,95037.64
2019-02-07T11:31:46.798Z,95032.89
2019-02-07T11:34:32.245Z,95033.39
2019-02-07T11:37:30.696Z,95017.27
2019-02-07T11:40:25.506Z,95021.64
2019-02-07T11:43:07.328Z,95015.63
2019-02-07T11:45:50.522Z,95014.72
2019-02-07T11:48:36.480Z,95018.60
2019-02-07T11:51:18.944Z,95010.02
2019-02-07T11:53:57.474Z,95010.13
2019-02-07T11:56:53.253Z,95004.61
2019-02-07T11:59:31.191Z,95010.33
2019-02-07T12:02:18.381Z,95002.11
2019-02-07T12:05:10.801Z,94996.62
2019-02-07T12:07:58.800Z,95000.28
2019-02-07T12:10:47.820Z,95000.59
2019-02-07T12:13:45.578Z,95002.45
2019-02-07T12:16:38.982Z,94992.93
2019-02-07T12:19:32.005Z,94995.91
2019-02-07T12:22:15.090Z,95000.29
2019-02-07T12:24:57.427Z,95002.91
2019-02-07T12:27:48.516Z,94996.42
2019-02-07T12:30:36.724Z,95003.11
2019-02-07T12:33:24.733Z,94991.25
2019-02-07T12:36:13.698Z,94996.47
2019-02-07T12:38:56.839Z,94998.12
2019-02-07T12:41:41.160Z,94987.55
2019-02-07T12:44:20.530Z,94990.71
2019-02-07T12:47:08.466Z,94995.09
2019-02-07T12:50:04.477Z,94995.55
2019-02-07T12:52:51.377Z,94994.96
2019-02-07T12:55:39.541Z,94993.78
2019-02-07T12:58:34.439Z,94998.98
2019-02-07T13:01:34.213Z,94999.70
2019-02-07T13:04:22.759Z,94997.41
2019-02-07T13:07:07.479Z,94996.70
2019-02-07T13:09:54.871Z,94994.41
2019-02-07T13:12:49.829Z,94994.41
2019-02-07T13:15:34.317Z,94997.06
2019-02-07T13:18:32.334Z,94988.63
2019-02-07T13:21:19.944Z,94986.82
2019-02-07T13:24:11.987Z,94988.50
2019-02-07T13:27:13.005Z,94989.68
2019-02-07T13:30:00.840Z,94986.52
2019-02-07T13:32:41.845Z,94990.69
2019-02-07T13:35:29.728Z,94984.20
2019-02-07T13:38:25.499Z,94991.92
2019-02-07T13:41:13.200Z,94990.83
2019-02-07T13:43:59.569Z,94986.28
2019-02-07T13:46:51.514Z,94984.42
2019-02-07T13:49:51.634Z,94987.20
2019-02-07T13:52:33.351Z,94981.13
2019-02-07T13:55:15.169Z,94981.92
2019-02-07T13:57:53.955Z,94988.70
2019-02-07T14:00:52.262Z,94985.62
2019-02-07T14:03:50.820Z,94991.03
2019-02-07T14:06:35.713Z,94996.00
2019-02-07T14:09:31.345Z,94997.05
2019-02-07T14:12:11.422Z,95004.56
2019-02-07T14:15:01.430Z,95004.78
2019-02-07T14:17:50.662Z,95016.13
2019-02-07T14:20:38.220Z,95021.09
2019-02-07T14:23:23.926Z,95018.89
2019-02-07T14:26:28.178Z,95020.97
2019-02-07T14:29:14.938Z,95020.85
2019-02-07T14:31:54.125Z,95021.29
2019-02-07T14:34:35.500Z,95022.80
2019-02-07T14:37:33.450Z,95028.94
2019-02-07T14:40:15.095Z,95036.99
2019-02-07T14:43:02.956Z,95033.31
2019-02-07T14:45:55.057Z,95022.86
2019-02-07T14:48:26.265Z,95039.05
2019-02-07T14:50:56.452Z,95042.80
2019-02-07T14:53:26.440Z,95046.36
2019-02-07T14:55:56.438Z,95049.34
2019-02-07T14:58:45.626Z,95043.10
2019-02-07T15:01:15.648Z,95045.97
2019-02-07T15:03:45.734Z,95047.02
2019-02-07T15:06:15.783Z,95054.15
2019-02-07T15:08:45.791Z,95059.17
2019-02-07T15:11:15.793Z,95055.80
2019-02-07T15:13:46.137Z,95050.61
2019-02-07T15:16:16.156Z,95049.57
2019-02-07T15:18:46.389Z,95048.35
2019-02-07T15:21:17.623Z,95051.22
2019-02-07T15:23:47.791Z,95052.66
2019-02-07T15:26:18.827Z,95053.77
2019-02-07T15:28:49.007Z,95047.91
2019-02-07T15:31:18.977Z,95046.30
2019-02-07T15:33:49.049Z,95057.17
2019-02-07T15:36:20.216Z,95047.74
2019-02-07T15:41:26.056Z,95060.50
2019-02-07T15:43:56.028Z,95054.31
2019-02-07T15:46:26.070Z,95052.26
2019-02-07T15:48:55.987Z,95058.77
2019-02-07T15:51:25.971Z,95058.13
2019-02-07T15:53:55.821Z,95059.12
2019-02-07T15:56:26.120Z,95058.14
2019-02-07T15:59:14.461Z,95053.05
2019-02-07T16:01:49.922Z,95058.30
2019-02-07T16:04:23.487Z,95044.84
2019-02-07T16:06:53.553Z,95049.25
2019-02-07T16:09:23.522Z,95048.80
2019-02-07T16:11:53.668Z,95051.34
2019-02-07T16:14:23.674Z,95059.12
2019-02-07T16:16:53.741Z,95060.55
2019-02-07T16:19:23.707Z,95067.22
2019-02-07T16:21:53.760Z,95065.77
2019-02-07T16:24:23.784Z,95068.66
2019-02-07T16:26:53.685Z,95067.83
2019-02-07T16:29:23.699Z,95067.35
2019-02-07T16:31:53.701Z,95070.55
2019-02-07T16:34:24.715Z,95069.57
2019-02-07T16:36:54.694Z,95069.92
2019-02-07T16:39:25.105Z,95065.95
2019-02-07T16:42:05.598Z,95076.72
2019-02-07T16:44:26.900Z,95070.52
2019-02-07T16:46:56.786Z,95077.19
2019-02-07T16:49:26.738Z,95068.77
2019-02-07T16:51:56.718Z,95066.39
2019-02-07T16:54:26.737Z,95081.62
2019-02-07T16:56:56.717Z,95085.77
2019-02-07T16:59:26.585Z,95085.13
2019-02-07T17:01:56.530Z,95087.71
2019-02-07T17:04:26.431Z,95078.19
2019-02-07T17:06:56.539Z,95086.63
2019-02-07T17:09:36.243Z,95102.32
2019-02-07T17:12:06.854Z,95090.10
2019-02-07T17:14:36.831Z,95102.79
2019-02-07T17:17:06.891Z,95103.27
2019-02-07T17:19:36.806Z,95117.89
2019-02-07T17:22:07.577Z,95111.05
2019-02-07T17:24:37.547Z,95123.28
2019-02-07T17:27:07.596Z,95126.30
2019-02-07T17:29:37.632Z,95122.31
2019-02-07T17:32:07.608Z,95128.34
2019-02-07T17:34:37.647Z,95131.04
2019-02-07T17:37:07.667Z,95139.78
2019-02-07T17:39:37.703Z,95135.33
2019-02-07T17:42:07.733Z,95131.67
2019-02-07T17:44:38.845Z,95148.03
2019-02-07T17:47:10.464Z,95142.62
2019-02-07T17:49:41.772Z,95150.70
2019-02-07T17:52:11.761Z,95150.73
2019-02-07T17:54:42.058Z,95153.42
2019-02-07T17:57:12.059Z,95155.17
2019-02-07T17:59:42.037Z,95151.50
2019-02-07T18:02:14.350Z,95147.72
2019-02-07T18:04:44.439Z,95146.77
2019-02-07T18:07:14.579Z,95145.33
2019-02-07T18:09:44.745Z,95148.98
2019-02-07T18:12:14.797Z,95149.64
2019-02-07T18:14:44.770Z,95146.29
2019-02-07T18:17:14.809Z,95145.48
2019-02-07T18:19:44.807Z,95144.68
2019-02-07T18:22:14.785Z,95153.25
2019-02-07T18:24:44.853Z,95146.42
2019-02-07T18:27:14.854Z,95147.09
2019-02-07T18:29:44.914Z,95151.83
2019-02-07T18:32:16.465Z,95158.67
2019-02-07T18:34:46.503Z,95156.27
2019-02-07T18:37:17.792Z,95154.05
2019-02-07T18:39:47.836Z,95159.92
2019-02-07T18:42:17.953Z,95152.31
2019-02-07T18:44:47.943Z,95129.60
2019-02-07T18:47:17.857Z,95157.55
2019-02-07T18:49:47.732Z,95147.22
2019-02-07T18:52:17.952Z,95149.28
2019-02-07T18:54:47.964Z,95151.98
2019-02-07T18:57:17.891Z,95151.83
2019-02-07T18:59:47.898Z,95150.56
2019-02-07T19:02:17.792Z,95150.72
2019-02-07T19:04:47.796Z,95145.80
2019-02-07T19:07:18.092Z,95152.95
2019-02-07T19:09:48.006Z,95154.53
2019-02-07T19:12:18.069Z,95155.32
2019-02-07T19:14:48.070Z,95158.98
2019-02-07T19:17:17.959Z,95155.14
2019-02-07T19:19:48.094Z,95160.22
2019-02-07T19:22:17.993Z,95163.88
2019-02-07T19:24:48.009Z,95161.33
2019-02-07T19:27:18.083Z,95159.58
2019-02-07T19:29:48.078Z,95162.26
2019-02-07T19:32:18.150Z,95167.34
2019-02-07T19:34:48.165Z,95161.16
2019-02-07T19:37:18.041Z,95167.34
2019-02-07T19:39:47.951Z,95171.17
2019-02-07T19:42:17.994Z,95172.77
2019-02-07T19:44:47.842Z,95171.34
2019-02-07T19:47:18.863Z,95173.90
2019-02-07T19:49:48.848Z,95176.91
2019-02-07T19:52:18.794Z,95184.83
2019-02-07T19:54:48.804Z,95183.41
2019-02-07T19:57:18.857Z,95190.07
2019-02-07T19:59:48.920Z,95190.05
2019-02-07T20:02:18.839Z,95180.04
2019-02-07T20:04:49.082Z,95190.20
2019-02-07T20:07:19.005Z,95191.16
2019-02-07T20:09:49.032Z,95190.04
2019-02-07T20:12:18.927Z,95189.41
2019-02-07T20:14:48.955Z,95193.86
2019-02-07T20:17:19.200Z,95194.97
2019-02-07T20:19:49.624Z,95197.66
2019-02-07T20:22:20.657Z,95201.95
2019-02-07T20:24:50.813Z,95200.21
2019-02-07T20:27:21.892Z,95205.92
2019-02-07T20:29:51.870Z,95210.67
2019-02-07T20:32:21.770Z,95211.45
2019-02-07T20:34:51.872Z,95204.14
2019-02-07T20:37:21.942Z,95205.89
2019-02-07T20:39:51.885Z,95205.25
2019-02-07T20:42:21.954Z,95216.06
2019-02-07T20:44:51.936Z,95214.95
2019-02-07T20:47:21.906Z,95215.88
2019-02-07T20:49:51.815Z,95222.56
2019-02-07T20:52:27.209Z,95223.17
2019-02-07T20:54:53.706Z,95222.85
2019-02-07T20:57:24.746Z,95226.98
2019-02-07T20:59:54.691Z,95233.00
2019-02-07T21:02:24.664Z,95235.41
2019-02-07T21:04:54.701Z,95241.25
2019-02-07T21:07:24.976Z,95244.44
2019-02-07T21:09:54.994Z,95241.10
2019-02-07T21:12:28.380Z,95244.91
2019-02-07T21:14:58.293Z,95248.56
2019-02-07T21:17:29.997Z,95254.89
2019-02-07T21:20:06.119Z,95251.08
2019-02-07T21:22:35.984Z,95251.08
2019-02-07T21:25:09.085Z,95250.76
2019-02-07T21:27:39.285Z,95257.10
2019-02-07T21:30:12.729Z,95261.88
2019-02-07T21:32:42.766Z,95258.34
2019-02-07T21:35:15.709Z,95264.84
2019-02-07T21:37:45.690Z,95266.73
2019-02-07T21:40:18.311Z,95278.16
2019-02-07T21:42:48.417Z,95279.22
2019-02-07T21:45:18.818Z,95284.77
2019-02-07T21:47:49.457Z,95292.06
2019-02-07T21:50:21.218Z,95286.98
2019-02-07T21:52:52.121Z,95291.86
2019-02-07T21:55:24.742Z,95285.66
2019-02-07T21:57:57.959Z,95294.98
2019-02-07T22:00:33.086Z,95298.94
2019-02-07T22:03:03.303Z,95312.09
2019-02-07T22:05:33.270Z,95300.50
2019-02-07T22:08:03.374Z,95304.77
2019-02-07T22:10:33.387Z,95313.18
2019-02-07T22:13:03.361Z,95321.26
2019-02-07T22:15:33.659Z,95329.48
2019-02-07T22:18:03.787Z,95325.33
2019-02-07T22:20:33.859Z,95328.66
2019-02-07T22:23:04.209Z,95364.02
2019-02-07T22:25:34.355Z,95345.17
2019-02-07T22:28:05.331Z,95350.53
2019-02-07T22:30:35.671Z,95359.95
2019-02-07T22:33:06.671Z,95370.19
2019-02-07T22:35:36.785Z,95370.66
2019-02-07T22:38:08.156Z,95386.16
2019-02-07T22:40:38.201Z,95382.45
2019-02-07T22:43:08.525Z,95392.31
2019-02-07T22:45:38.483Z,95399.88
2019-02-07T22:48:08.945Z,95405.13
2019-02-07T22:50:39.006Z,95406.39
2019-02-07T22:53:09.091Z,95400.91
2019-02-07T22:55:39.089Z,95395.38
2019-02-07T22:58:09.651Z,95387.98
2019-02-07T23:01:14.820Z,95396.10
2019-02-07T23:03:47.305Z,95399.98
2019-02-07T23:06:18.380Z,95408.30
2019-02-07T23:08:48.665Z,95416.73
2019-02-07T23:11:19.093Z,95416.70
2019-02-07T23:13:49.051Z,95423.98
2019-02-07T23:16:19.229Z,95420.92
2019-02-07T23:18:49.537Z,95429.14
2019-02-07T23:21:19.579Z,95430.94
2019-02-07T23:23:49.561Z,95436.33
2019-02-07T23:26:19.482Z,95430.78
2019-02-07T23:28:49.540Z,95431.68
2019-02-07T23:31:19.552Z,95437.42
2019-02-07T23:33:49.661Z,95438.41
2019-02-07T23:36:19.757Z,95447.66
2019-02-07T23:41:25.028Z,95438.66
2019-02-07T23:43:54.996Z,95437.85
2019-02-07T23:46:25.237Z,95443.23
2019-02-07T23:48:55.453Z,95445.31
2019-02-07T23:51:25.350Z,95451.03
2019-02-07T23:53:55.576Z,95456.66
2019-02-07T23:56:25.561Z,95459.16
2019-02-07T23:58:55.654Z,95467.23
